createdAt,value
2023-02-08T00:00:35.412Z,10.97
2023-02-08T00:03:02.058Z,12.63
2023-02-08T00:05:28.840Z,12.60
2023-02-08T00:07:55.462Z,12.27
2023-02-08T00:10:22.050Z,10.97
2023-02-08T00:12:48.689Z,11.50
2023-02-08T00:15:15.571Z,13.33
2023-02-08T00:17:42.210Z,13.13
2023-02-08T00:20:09.513Z,11.33
2023-02-08T00:22:36.204Z,10.77
2023-02-08T00:25:02.829Z,12.10
2023-02-08T00:27:29.449Z,10.93
2023-02-08T00:29:56.058Z,11.03
2023-02-08T00:32:22.717Z,10.90
2023-02-08T00:34:49.334Z,12.97
2023-02-08T00:37:15.965Z,12.70
2023-02-08T00:39:42.646Z,12.90
2023-02-08T00:42:09.421Z,11.73
2023-02-08T00:44:36.192Z,11.50
2023-02-08T00:47:02.912Z,11.30
2023-02-08T00:49:29.562Z,13.33
2023-02-08T00:51:56.228Z,44.33
2023-02-08T00:54:22.909Z,15.93
2023-02-08T00:56:49.548Z,12.60
2023-02-08T00:59:16.192Z,13.30
2023-02-08T01:01:42.900Z,13.50
2023-02-08T01:04:09.666Z,12.60
2023-02-08T01:06:36.312Z,12.27
2023-02-08T01:09:03.296Z,11.93
2023-02-08T01:11:29.976Z,11.13
2023-02-08T01:13:57.830Z,12.13
2023-02-08T01:16:28.795Z,12.67
2023-02-08T01:18:57.054Z,11.90
2023-02-08T01:21:26.323Z,12.93
2023-02-08T01:23:53.588Z,12.27
2023-02-08T01:26:21.663Z,11.43
2023-02-08T01:28:48.925Z,12.00
2023-02-08T01:31:18.490Z,12.30
2023-02-08T01:33:45.241Z,12.97
2023-02-08T01:36:12.032Z,13.10
2023-02-08T01:38:39.202Z,12.40
2023-02-08T01:41:07.711Z,13.07
2023-02-08T01:43:56.266Z,10.90
2023-02-08T01:46:23.084Z,12.43
2023-02-08T01:48:50.337Z,12.80
2023-02-08T01:51:25.401Z,13.67
2023-02-08T01:53:55.266Z,12.90
2023-02-08T01:56:29.530Z,12.50
2023-02-08T01:59:00.999Z,11.60
2023-02-08T02:01:30.650Z,11.97
2023-02-08T02:04:01.526Z,13.47
2023-02-08T02:06:33.901Z,13.40
2023-02-08T02:09:18.187Z,13.57
2023-02-08T02:11:44.848Z,14.37
2023-02-08T02:14:11.959Z,13.80
2023-02-08T02:16:38.771Z,12.13
2023-02-08T02:19:14.486Z,12.60
2023-02-08T02:22:30.212Z,12.47
2023-02-08T02:25:22.149Z,14.10
2023-02-08T02:28:09.029Z,13.20
2023-02-08T02:30:44.555Z,11.50
2023-02-08T02:33:39.993Z,13.10
2023-02-08T02:36:18.945Z,12.60
2023-02-08T02:39:13.918Z,12.63
2023-02-08T02:42:17.656Z,12.90
2023-02-08T02:45:04.549Z,12.90
2023-02-08T02:48:09.704Z,13.43
2023-02-08T02:50:46.963Z,12.70
2023-02-08T02:53:22.782Z,11.93
2023-02-08T02:55:54.478Z,14.67
2023-02-08T02:58:22.885Z,13.53
2023-02-08T03:00:56.874Z,14.43
2023-02-08T03:03:27.082Z,13.83
2023-02-08T03:05:59.806Z,14.20
2023-02-08T03:08:55.332Z,14.00
2023-02-08T03:11:34.168Z,12.33
2023-02-08T03:14:19.303Z,13.10
2023-02-08T03:17:05.758Z,14.00
2023-02-08T03:19:39.067Z,13.13
2023-02-08T03:22:26.414Z,14.87
2023-02-08T03:25:07.550Z,13.80
2023-02-08T03:27:39.560Z,15.27
2023-02-08T03:30:28.069Z,14.23
2023-02-08T03:33:17.763Z,13.90
2023-02-08T03:35:57.414Z,12.77
2023-02-08T03:38:39.607Z,13.70
2023-02-08T03:41:10.660Z,14.10
2023-02-08T03:43:48.188Z,15.13
2023-02-08T03:46:26.054Z,13.90
2023-02-08T03:48:59.354Z,13.93
2023-02-08T03:51:28.234Z,13.93
2023-02-08T03:53:56.570Z,13.10
2023-02-08T03:56:38.774Z,13.73
2023-02-08T03:59:11.858Z,13.70
2023-02-08T04:01:44.985Z,14.00
2023-02-08T04:04:13.792Z,14.70
2023-02-08T04:06:40.434Z,14.93
2023-02-08T04:09:07.070Z,12.83
2023-02-08T04:11:33.747Z,14.90
2023-02-08T04:14:00.367Z,12.07
2023-02-08T04:16:27.068Z,14.47
2023-02-08T04:18:53.692Z,15.20
2023-02-08T04:21:20.557Z,13.77
2023-02-08T04:23:47.121Z,13.90
2023-02-08T04:26:13.706Z,14.43
2023-02-08T04:28:40.376Z,15.20
2023-02-08T04:31:07.096Z,14.07
2023-02-08T04:33:33.805Z,14.00
2023-02-08T04:36:00.426Z,14.43
2023-02-08T04:38:27.034Z,14.43
2023-02-08T04:40:53.646Z,15.10
2023-02-08T04:43:20.277Z,15.03
2023-02-08T04:45:46.901Z,14.60
2023-02-08T04:48:13.469Z,15.70
2023-02-08T04:50:40.379Z,14.97
2023-02-08T04:53:07.143Z,13.77
2023-02-08T04:55:34.331Z,15.40
2023-02-08T04:58:00.957Z,15.63
2023-02-08T05:00:27.825Z,14.97
2023-02-08T05:02:55.828Z,14.03
2023-02-08T05:05:23.107Z,15.30
2023-02-08T05:07:49.828Z,15.30
2023-02-08T05:10:16.854Z,16.37
2023-02-08T05:12:45.259Z,13.50
2023-02-08T05:15:12.781Z,15.10
2023-02-08T05:17:39.464Z,15.67
2023-02-08T05:20:06.576Z,15.40
2023-02-08T05:22:33.538Z,14.30
2023-02-08T05:25:00.496Z,15.20
2023-02-08T05:27:27.259Z,16.20
2023-02-08T05:29:53.920Z,17.73
2023-02-08T05:32:20.621Z,15.30
2023-02-08T05:34:47.778Z,16.87
2023-02-08T05:37:14.546Z,16.97
2023-02-08T05:39:41.160Z,17.30
2023-02-08T05:42:07.844Z,16.43
2023-02-08T05:44:34.430Z,16.00
2023-02-08T05:47:01.822Z,18.80
2023-02-08T05:49:28.471Z,16.37
2023-02-08T05:51:55.418Z,16.30
2023-02-08T05:54:22.094Z,16.57
2023-02-08T05:56:48.699Z,17.00
2023-02-08T05:59:15.404Z,15.07
2023-02-08T06:01:42.007Z,16.33
2023-02-08T06:04:08.685Z,14.47
2023-02-08T06:06:35.280Z,17.00
2023-02-08T06:09:01.956Z,16.07
2023-02-08T06:11:28.542Z,17.90
2023-02-08T06:13:55.133Z,16.27
2023-02-08T06:16:21.745Z,16.60
2023-02-08T06:18:48.414Z,16.13
2023-02-08T06:21:14.990Z,18.27
2023-02-08T06:23:42.389Z,17.33
2023-02-08T06:26:08.988Z,18.27
2023-02-08T06:28:35.668Z,16.10
2023-02-08T06:31:02.310Z,18.10
2023-02-08T06:33:29.107Z,17.20
2023-02-08T06:35:55.764Z,16.40
2023-02-08T06:38:22.528Z,18.67
2023-02-08T06:40:49.979Z,17.63
2023-02-08T06:43:16.931Z,16.93
2023-02-08T06:45:47.345Z,17.27
2023-02-08T06:48:14.822Z,16.50
2023-02-08T06:50:41.858Z,16.37
2023-02-08T06:53:08.702Z,18.80
2023-02-08T06:55:35.517Z,19.27
2023-02-08T06:58:02.128Z,19.70
2023-02-08T07:00:29.060Z,18.90
2023-02-08T07:02:55.824Z,16.40
2023-02-08T07:05:22.459Z,16.90
2023-02-08T07:07:49.134Z,17.60
2023-02-08T07:10:16.516Z,17.50
2023-02-08T07:12:43.281Z,16.90
2023-02-08T07:15:13.087Z,18.87
2023-02-08T07:17:40.013Z,17.80
2023-02-08T07:20:07.253Z,19.83
2023-02-08T07:22:33.940Z,18.67
2023-02-08T07:25:00.706Z,18.50
2023-02-08T07:27:27.747Z,17.50
2023-02-08T07:29:54.420Z,17.73
2023-02-08T07:32:21.008Z,18.10
2023-02-08T07:34:47.625Z,16.93
2023-02-08T07:37:14.330Z,18.83
2023-02-08T07:39:40.999Z,18.67
2023-02-08T07:42:09.677Z,18.90
2023-02-08T07:44:39.759Z,19.37
2023-02-08T07:47:06.907Z,17.67
2023-02-08T07:49:34.027Z,18.90
2023-02-08T07:52:01.564Z,18.73
2023-02-08T07:54:28.961Z,18.97
2023-02-08T07:56:56.571Z,18.60
2023-02-08T07:59:23.523Z,17.67
2023-02-08T08:01:50.193Z,18.07
2023-02-08T08:04:17.051Z,18.20
2023-02-08T08:06:43.751Z,18.20
2023-02-08T08:09:10.568Z,20.83
2023-02-08T08:11:37.195Z,19.50
2023-02-08T08:14:03.825Z,19.20
2023-02-08T08:16:30.414Z,19.90
2023-02-08T08:18:57.120Z,20.77
2023-02-08T08:21:23.772Z,18.60
2023-02-08T08:23:50.885Z,18.43
2023-02-08T08:26:20.235Z,18.37
2023-02-08T08:28:47.691Z,19.80
2023-02-08T08:31:20.088Z,20.93
2023-02-08T08:33:47.709Z,20.20
2023-02-08T08:36:14.402Z,19.60
2023-02-08T08:38:41.717Z,19.17
2023-02-08T08:41:14.776Z,19.20
2023-02-08T08:43:41.858Z,19.80
2023-02-08T08:46:08.981Z,19.07
2023-02-08T08:48:36.527Z,19.93
2023-02-08T08:51:03.404Z,21.43
2023-02-08T08:53:30.391Z,20.97
2023-02-08T08:55:57.083Z,19.93
2023-02-08T08:58:23.734Z,20.87
2023-02-08T09:00:51.117Z,22.67
2023-02-08T09:03:17.780Z,20.87
2023-02-08T09:05:44.409Z,20.63
2023-02-08T09:08:11.056Z,22.10
2023-02-08T09:10:37.682Z,22.27
2023-02-08T09:13:04.403Z,20.60
2023-02-08T09:15:31.034Z,20.90
2023-02-08T09:17:57.638Z,21.20
2023-02-08T09:20:24.397Z,21.10
2023-02-08T09:22:51.077Z,21.40
2023-02-08T09:25:18.009Z,19.77
2023-02-08T09:27:44.911Z,20.13
2023-02-08T09:30:11.808Z,19.90
2023-02-08T09:32:39.831Z,21.43
2023-02-08T09:35:07.945Z,20.13
2023-02-08T09:37:34.608Z,19.70
2023-02-08T09:40:01.723Z,17.87
2023-02-08T09:42:41.896Z,19.50
2023-02-08T09:45:27.639Z,20.10
2023-02-08T09:48:12.076Z,19.30
2023-02-08T09:51:02.810Z,19.10
2023-02-08T09:53:41.637Z,18.87
2023-02-08T09:56:14.553Z,17.50
2023-02-08T09:58:46.969Z,17.93
2023-02-08T10:01:24.318Z,20.57
2023-02-08T10:03:57.028Z,19.80
2023-02-08T10:06:23.985Z,19.47
2023-02-08T10:08:52.773Z,18.20
2023-02-08T10:11:43.463Z,17.30
2023-02-08T10:14:21.020Z,18.37
2023-02-08T10:16:50.713Z,20.30
2023-02-08T10:19:29.885Z,18.80
2023-02-08T10:22:27.330Z,17.57
2023-02-08T10:25:27.895Z,18.93
2023-02-08T10:28:25.870Z,18.80
2023-02-08T10:31:01.325Z,27.07
2023-02-08T10:33:54.692Z,20.50
2023-02-08T10:36:25.717Z,20.37
2023-02-08T10:38:55.296Z,18.57
2023-02-08T10:41:26.945Z,18.73
2023-02-08T10:44:03.203Z,19.50
2023-02-08T10:46:44.024Z,19.10
2023-02-08T10:49:22.559Z,19.37
2023-02-08T10:51:49.745Z,18.00
2023-02-08T10:54:17.897Z,20.17
2023-02-08T10:56:47.148Z,19.70
2023-02-08T10:59:21.758Z,19.97
2023-02-08T11:01:49.551Z,20.10
2023-02-08T11:04:17.580Z,19.97
2023-02-08T11:06:45.443Z,20.70
2023-02-08T11:09:27.657Z,18.90
2023-02-08T11:11:55.351Z,19.93
2023-02-08T11:14:45.379Z,18.10
2023-02-08T11:17:27.248Z,18.70
2023-02-08T11:19:54.310Z,19.60
2023-02-08T11:22:24.545Z,19.30
2023-02-08T11:25:00.122Z,18.80
2023-02-08T11:27:26.666Z,19.93
2023-02-08T11:30:13.196Z,19.13
2023-02-08T11:32:41.166Z,18.80
2023-02-08T11:35:29.486Z,20.50
2023-02-08T11:37:59.060Z,20.13
2023-02-08T11:40:28.588Z,17.63
2023-02-08T11:42:56.015Z,19.07
2023-02-08T11:45:25.893Z,19.60
2023-02-08T11:47:53.648Z,17.23
2023-02-08T11:50:36.879Z,17.73
2023-02-08T11:53:08.322Z,16.77
2023-02-08T11:55:35.693Z,18.40
2023-02-08T11:58:02.254Z,18.27
2023-02-08T12:00:34.035Z,15.57
2023-02-08T12:03:05.341Z,16.50
2023-02-08T12:05:56.637Z,14.17
2023-02-08T12:08:39.617Z,17.13
2023-02-08T12:11:10.794Z,18.37
2023-02-08T12:13:57.339Z,18.67
2023-02-08T12:16:58.140Z,17.47
2023-02-08T12:19:42.736Z,16.67
2023-02-08T12:22:16.528Z,14.97
2023-02-08T12:25:02.060Z,15.13
2023-02-08T12:27:58.123Z,14.90
2023-02-08T12:30:52.369Z,15.00
2023-02-08T12:33:53.385Z,13.63
2023-02-08T12:36:20.091Z,16.23
2023-02-08T12:39:32.833Z,15.17
2023-02-08T12:42:24.670Z,15.40
2023-02-08T12:45:06.719Z,13.60
2023-02-08T12:48:04.304Z,13.87
2023-02-08T12:50:47.590Z,14.10
2023-02-08T12:53:33.310Z,15.83
2023-02-08T12:56:06.806Z,14.57
2023-02-08T12:58:45.006Z,14.83
2023-02-08T13:01:26.437Z,13.43
2023-02-08T13:04:08.579Z,16.10
2023-02-08T13:06:42.475Z,15.00
2023-02-08T13:09:33.906Z,12.47
2023-02-08T13:12:05.238Z,14.50
2023-02-08T13:14:42.355Z,14.20
2023-02-08T13:17:17.830Z,13.40
2023-02-08T13:20:04.993Z,12.43
2023-02-08T13:22:41.634Z,57.37
2023-02-08T13:25:16.581Z,13.90
2023-02-08T13:27:43.325Z,14.03
2023-02-08T13:30:19.516Z,12.83
2023-02-08T13:32:50.329Z,11.70
2023-02-08T13:35:23.787Z,10.80
2023-02-08T13:37:54.352Z,10.87
2023-02-08T13:40:33.673Z,10.47
2023-02-08T13:43:33.957Z,10.30
2023-02-08T13:46:03.036Z,9.97
2023-02-08T13:48:42.126Z,10.23
2023-02-08T13:51:28.659Z,10.57
2023-02-08T13:53:55.283Z,11.07
2023-02-08T13:56:37.499Z,10.50
2023-02-08T13:59:24.309Z,10.70
2023-02-08T14:02:09.990Z,10.83
2023-02-08T14:04:41.998Z,9.37
2023-02-08T14:07:11.663Z,13.20
2023-02-08T14:10:09.786Z,9.77
2023-02-08T14:12:48.209Z,11.37
2023-02-08T14:15:14.833Z,10.33
2023-02-08T14:17:50.448Z,9.10
2023-02-08T14:20:32.080Z,9.30
2023-02-08T14:23:05.571Z,10.20
2023-02-08T14:25:45.190Z,9.93
2023-02-08T14:28:35.757Z,11.20
2023-02-08T14:31:07.347Z,9.87
2023-02-08T14:33:38.467Z,10.70
2023-02-08T14:36:18.980Z,8.03
2023-02-08T14:39:05.658Z,10.00
2023-02-08T14:41:48.420Z,9.70
2023-02-08T14:44:41.646Z,9.60
2023-02-08T14:47:23.191Z,10.17
2023-02-08T14:49:55.348Z,9.37
2023-02-08T14:52:24.728Z,9.60
2023-02-08T14:55:01.184Z,10.67
2023-02-08T14:57:33.726Z,10.30
2023-02-08T15:00:06.365Z,9.10
2023-02-08T15:02:35.696Z,9.70
2023-02-08T15:05:09.976Z,9.57
2023-02-08T15:07:53.561Z,12.50
2023-02-08T15:10:22.132Z,10.97
2023-02-08T15:12:54.304Z,15.37
2023-02-08T15:15:29.594Z,10.77
2023-02-08T15:17:56.912Z,10.87
2023-02-08T15:20:26.847Z,9.70
2023-02-08T15:23:18.312Z,10.67
2023-02-08T15:25:55.523Z,12.50
2023-02-08T15:28:25.303Z,12.30
2023-02-08T15:31:11.371Z,10.83
2023-02-08T15:33:39.980Z,10.37
2023-02-08T15:36:14.671Z,10.70
2023-02-08T15:38:44.732Z,10.73
2023-02-08T15:41:14.895Z,11.63
2023-02-08T15:43:42.691Z,11.80
2023-02-08T15:46:25.745Z,14.43
2023-02-08T15:48:53.775Z,12.00
2023-02-08T15:51:23.105Z,11.50
2023-02-08T15:53:53.030Z,10.43
2023-02-08T15:56:36.801Z,11.60
2023-02-08T15:59:07.211Z,11.00
2023-02-08T16:01:34.410Z,12.67
2023-02-08T16:04:12.412Z,11.10
2023-02-08T16:06:45.920Z,10.70
2023-02-08T16:09:19.836Z,11.43
2023-02-08T16:11:50.023Z,11.37
2023-02-08T16:14:21.747Z,16.43
2023-02-08T16:16:56.090Z,12.70
2023-02-08T16:19:29.699Z,11.63
2023-02-08T16:22:30.850Z,12.23
2023-02-08T16:25:34.186Z,10.97
2023-02-08T16:28:01.542Z,10.57
2023-02-08T16:30:28.467Z,10.93
2023-02-08T16:32:55.508Z,10.40
2023-02-08T16:35:29.515Z,12.20
2023-02-08T16:37:59.164Z,11.20
2023-02-08T16:40:39.894Z,16.10
2023-02-08T16:43:15.830Z,12.17
2023-02-08T16:45:42.507Z,12.90
2023-02-08T16:48:36.069Z,11.60
2023-02-08T16:51:04.668Z,14.13
2023-02-08T16:53:41.333Z,15.57
2023-02-08T16:56:10.569Z,12.70
2023-02-08T16:58:37.749Z,13.80
2023-02-08T17:01:04.876Z,13.57
2023-02-08T17:03:32.643Z,13.53
2023-02-08T17:06:00.967Z,14.57
2023-02-08T17:08:27.891Z,15.80
2023-02-08T17:10:58.758Z,12.60
2023-02-08T17:13:28.856Z,13.43
2023-02-08T17:15:57.303Z,12.90
2023-02-08T17:18:23.992Z,12.73
2023-02-08T17:20:57.543Z,16.90
2023-02-08T17:23:24.270Z,14.17
2023-02-08T17:25:51.470Z,12.77
2023-02-08T17:28:19.886Z,12.17
2023-02-08T17:30:48.434Z,14.40
2023-02-08T17:33:18.307Z,12.77
2023-02-08T17:35:52.087Z,12.80
2023-02-08T17:38:19.982Z,14.33
2023-02-08T17:40:47.268Z,13.83
2023-02-08T17:43:14.549Z,13.10
2023-02-08T17:45:43.592Z,13.73
2023-02-08T17:48:13.215Z,14.00
2023-02-08T17:50:47.757Z,12.70
2023-02-08T17:53:15.185Z,12.87
2023-02-08T17:55:43.611Z,15.73
2023-02-08T17:58:10.876Z,14.17
2023-02-08T18:00:37.660Z,14.27
2023-02-08T18:03:04.438Z,13.77
2023-02-08T18:05:31.138Z,14.43
2023-02-08T18:07:57.837Z,14.10
2023-02-08T18:10:25.400Z,13.23
2023-02-08T18:12:52.116Z,15.43
2023-02-08T18:15:21.442Z,14.77
2023-02-08T18:17:48.730Z,14.57
2023-02-08T18:20:16.452Z,16.07
2023-02-08T18:22:44.380Z,15.70
2023-02-08T18:25:13.065Z,16.20
2023-02-08T18:27:39.869Z,16.47
2023-02-08T18:30:07.091Z,16.00
2023-02-08T18:32:34.085Z,15.63
2023-02-08T18:35:03.612Z,15.87
2023-02-08T18:37:31.635Z,16.00
2023-02-08T18:39:58.482Z,18.67
2023-02-08T18:42:25.172Z,16.53
2023-02-08T18:44:51.876Z,16.87
2023-02-08T18:47:18.582Z,17.17
2023-02-08T18:49:45.378Z,17.27
2023-02-08T18:52:15.636Z,17.53
2023-02-08T18:54:42.260Z,16.73
2023-02-08T18:57:11.782Z,18.30
2023-02-08T18:59:38.996Z,18.63
2023-02-08T19:02:07.141Z,18.10
2023-02-08T19:04:40.545Z,18.67
2023-02-08T19:07:07.317Z,16.47
2023-02-08T19:09:37.790Z,19.43
2023-02-08T19:12:05.064Z,17.30
2023-02-08T19:14:31.766Z,19.17
2023-02-08T19:16:58.364Z,17.50
2023-02-08T19:19:25.322Z,18.83
2023-02-08T19:21:52.232Z,19.73
2023-02-08T19:24:21.822Z,19.13
2023-02-08T19:26:48.471Z,17.73
2023-02-08T19:29:19.844Z,19.03
2023-02-08T19:31:47.319Z,17.77
2023-02-08T19:34:14.526Z,17.20
2023-02-08T19:36:44.868Z,18.33
2023-02-08T19:39:14.821Z,16.80
2023-02-08T19:41:41.828Z,17.93
2023-02-08T19:44:11.835Z,17.03
2023-02-08T19:46:38.891Z,19.60
2023-02-08T19:49:06.969Z,16.73
2023-02-08T19:51:36.873Z,20.97
2023-02-08T19:54:06.950Z,19.97
2023-02-08T19:56:33.887Z,17.87
2023-02-08T19:59:05.318Z,19.70
2023-02-08T20:01:34.156Z,17.80
2023-02-08T20:04:02.318Z,18.20
2023-02-08T20:06:32.313Z,18.70
2023-02-08T20:09:00.401Z,19.57
2023-02-08T20:11:29.514Z,22.00
2023-02-08T20:13:58.795Z,21.37
2023-02-08T20:16:26.769Z,18.67
2023-02-08T20:18:53.600Z,18.17
2023-02-08T20:21:20.484Z,20.43
2023-02-08T20:23:47.692Z,18.50
2023-02-08T20:26:18.868Z,20.37
2023-02-08T20:28:50.230Z,18.30
2023-02-08T20:31:23.018Z,18.50
2023-02-08T20:33:50.407Z,21.87
2023-02-08T20:36:23.440Z,18.33
2023-02-08T20:38:52.712Z,20.10
2023-02-08T20:41:20.554Z,18.40
2023-02-08T20:43:47.944Z,18.90
2023-02-08T20:46:25.874Z,19.73
2023-02-08T20:48:54.932Z,20.00
2023-02-08T20:51:23.340Z,17.97
2023-02-08T20:53:50.813Z,18.37
2023-02-08T20:56:20.530Z,19.70
2023-02-08T20:58:48.025Z,18.47
2023-02-08T21:01:17.817Z,20.20
2023-02-08T21:03:46.033Z,18.93
2023-02-08T21:06:16.802Z,18.00
2023-02-08T21:08:44.544Z,19.63
2023-02-08T21:11:12.245Z,18.77
2023-02-08T21:13:39.136Z,20.53
2023-02-08T21:16:09.386Z,18.80
2023-02-08T21:18:37.184Z,20.80
2023-02-08T21:21:07.672Z,21.10
2023-02-08T21:23:35.499Z,20.40
2023-02-08T21:26:03.947Z,19.90
2023-02-08T21:28:31.095Z,18.60
2023-02-08T21:31:03.305Z,20.83
2023-02-08T21:33:30.093Z,20.07
2023-02-08T21:36:00.535Z,20.60
2023-02-08T21:38:27.186Z,19.90
2023-02-08T21:40:53.848Z,20.03
2023-02-08T21:43:20.479Z,20.40
2023-02-08T21:45:47.148Z,20.20
2023-02-08T21:48:13.745Z,19.83
2023-02-08T21:50:58.734Z,19.60
2023-02-08T21:53:44.234Z,21.47
2023-02-08T21:56:11.003Z,22.23
2023-02-08T21:58:37.696Z,21.13
2023-02-08T22:01:05.837Z,21.23
2023-02-08T22:03:34.274Z,21.27
2023-02-08T22:06:19.963Z,20.80
2023-02-08T22:08:46.562Z,19.87
2023-02-08T22:11:14.541Z,20.27
2023-02-08T22:13:43.621Z,22.47
2023-02-08T22:16:10.879Z,22.17
2023-02-08T22:18:41.136Z,21.00
2023-02-08T22:21:08.566Z,22.30
2023-02-08T22:23:35.233Z,20.30
2023-02-08T22:26:07.725Z,21.20
2023-02-08T22:28:34.767Z,21.00
2023-02-08T22:31:02.291Z,20.53
2023-02-08T22:33:29.300Z,21.63
2023-02-08T22:35:56.372Z,22.63
2023-02-08T22:38:24.057Z,21.07
2023-02-08T22:40:50.800Z,23.77
2023-02-08T22:43:17.582Z,21.23
2023-02-08T22:45:44.278Z,21.80
2023-02-08T22:48:11.007Z,22.00
2023-02-08T22:50:38.221Z,22.60
2023-02-08T22:53:04.839Z,22.40
2023-02-08T22:55:31.479Z,21.90
2023-02-08T22:57:58.072Z,23.97
2023-02-08T23:00:24.744Z,20.00
2023-02-08T23:02:51.407Z,22.97
2023-02-08T23:05:18.161Z,23.13
2023-02-08T23:07:44.763Z,22.37
2023-02-08T23:10:11.580Z,22.93
2023-02-08T23:12:38.290Z,22.50
2023-02-08T23:15:05.197Z,23.03
2023-02-08T23:17:31.846Z,23.07
2023-02-08T23:19:58.603Z,21.50
2023-02-08T23:22:25.213Z,21.43
2023-02-08T23:24:51.846Z,21.87
2023-02-08T23:27:18.468Z,26.47
2023-02-08T23:29:45.055Z,23.30
2023-02-08T23:32:11.710Z,20.13
2023-02-08T23:34:38.387Z,23.00
2023-02-08T23:37:05.029Z,24.40
2023-02-08T23:39:33.826Z,24.17
2023-02-08T23:42:00.967Z,23.27
2023-02-08T23:44:27.639Z,22.40
2023-02-08T23:46:54.628Z,21.90
2023-02-08T23:49:21.241Z,23.77
2023-02-08T23:51:47.844Z,24.37
2023-02-08T23:54:14.445Z,22.83
2023-02-08T23:56:41.179Z,23.63
2023-02-08T23:59:09.790Z,22.40
